Time;durP1;ratioP1;P1;durP2;ratioP2;P2;SDS_P1;SDS_P2;PMS_P1;PMS_P2;Temp;Humidity;BMP_temperature;BMP_pressure;BME280_temperature;BME280_humidity;BME280_pressure;Samples;Min_cycle;Max_cycle;Signal;HPM_P1;HPM_P2
2022/01/04 00:01:02;;;;;;;4.50;1.20;;;;;;;6.23;100.00;95434.03;10502184;28;20229;-79
2022/01/04 00:06:03;;;;;;;1.03;0.90;;;;;;;6.32;100.00;95429.66;10502621;28;20544;-79
2022/01/04 00:16:29;;;;;;;1.87;1.00;;;;;;;6.40;100.00;95421.88;10477834;28;20231;-79
2022/01/04 00:21:30;;;;;;;2.07;0.97;;;;;;;6.37;100.00;95416.97;10467071;28;20622;-79
2022/01/04 00:26:30;;;;;;;2.10;1.00;;;;;;;6.41;100.00;95406.09;10500615;28;20686;-79
2022/01/04 00:31:31;;;;;;;1.20;1.00;;;;;;;6.52;100.00;95411.94;10500845;28;20211;-79
2022/01/04 00:36:33;;;;;;;1.23;0.80;;;;;;;6.48;100.00;95392.44;10483155;28;20231;-79
2022/01/04 00:41:34;;;;;;;1.10;1.00;;;;;;;6.48;100.00;95389.84;10500020;28;20215;-79
2022/01/04 00:46:34;;;;;;;2.43;1.07;;;;;;;6.43;100.00;95387.72;10500638;28;20236;-79
2022/01/04 00:51:35;;;;;;;0.90;0.90;;;;;;;6.51;100.00;95394.69;10500275;28;20223;-79
2022/01/04 00:56:36;;;;;;;1.10;1.00;;;;;;;6.39;100.00;95382.03;10499765;28;20194;-78
2022/01/04 01:01:37;;;;;;;2.87;1.10;;;;;;;6.32;100.00;95381.06;10499810;28;20550;-78
2022/01/04 01:06:38;;;;;;;1.90;0.90;;;;;;;6.35;100.00;95364.31;10480805;28;20183;-78
2022/01/04 01:11:38;;;;;;;4.20;1.10;;;;;;;6.29;100.00;95362.38;10498908;28;20215;-78
2022/01/04 01:16:38;;;;;;;2.67;1.20;;;;;;;6.19;100.00;95357.34;10481761;28;20207;-78
2022/01/04 01:21:39;;;;;;;2.70;1.00;;;;;;;6.25;100.00;95354.09;10498797;28;20199;-79
2022/01/04 01:26:39;;;;;;;1.77;1.23;;;;;;;6.22;100.00;95346.63;10498413;28;20187;-78
2022/01/04 01:31:39;;;;;;;1.10;1.00;;;;;;;6.18;100.00;95333.13;10498857;28;20226;-77
2022/01/04 01:36:40;;;;;;;1.17;1.07;;;;;;;6.14;100.00;95318.00;10498044;28;20227;-78
2022/01/04 01:41:40;;;;;;;2.97;1.13;;;;;;;6.00;100.00;95325.50;10480000;28;20283;-78
2022/01/04 01:46:40;;;;;;;0.97;0.97;;;;;;;6.03;100.00;95309.59;10480046;28;20195;-78
2022/01/04 01:51:41;;;;;;;3.30;1.20;;;;;;;6.03;100.00;95303.56;10498104;28;20218;-78
2022/01/04 01:56:41;;;;;;;2.10;1.00;;;;;;;6.06;100.00;95295.44;10497276;28;20195;-78
2022/01/04 02:01:42;;;;;;;1.50;1.00;;;;;;;6.05;100.00;95291.22;10495354;28;20665;-78
2022/01/04 02:06:42;;;;;;;0.60;0.60;;;;;;;5.98;100.00;95291.03;10495963;28;20191;-78
2022/01/04 02:11:43;;;;;;;1.20;0.90;;;;;;;5.87;100.00;95288.75;10495365;28;20619;-78
2022/01/04 02:16:43;;;;;;;2.60;1.00;;;;;;;5.83;100.00;95282.25;10477459;28;20179;-78
2022/01/04 02:21:43;;;;;;;0.70;0.70;;;;;;;5.88;100.00;95266.97;10495085;28;20181;-78
2022/01/04 02:26:44;;;;;;;0.77;0.70;;;;;;;5.75;100.00;95259.66;10494835;28;20191;-79
2022/01/04 02:31:44;;;;;;;1.43;0.77;;;;;;;5.71;100.00;95254.00;10477340;28;20687;-79
2022/01/04 02:36:45;;;;;;;1.43;0.60;;;;;;;5.64;100.00;95237.44;10493923;28;20243;-79
2022/01/04 02:41:45;;;;;;;1.33;0.63;;;;;;;5.67;100.00;95221.50;10495370;28;20189;-80
2022/01/04 02:46:45;;;;;;;0.70;0.70;;;;;;;5.63;100.00;95217.59;10495365;28;20195;-80
2022/01/04 02:51:46;;;;;;;1.53;0.70;;;;;;;5.54;100.00;95221.19;10495031;28;20218;-80
2022/01/04 02:56:46;;;;;;;3.07;0.87;;;;;;;5.51;100.00;95211.94;10494326;28;20244;-80
2022/01/04 03:01:47;;;;;;;1.37;0.90;;;;;;;5.48;100.00;95209.69;10495110;28;20187;-80
2022/01/04 03:06:47;;;;;;;0.87;0.80;;;;;;;5.50;100.00;95199.13;10495627;28;20194;-80
2022/01/04 03:11:48;;;;;;;2.50;0.90;;;;;;;5.38;100.00;95190.03;10494965;28;20219;-81
2022/01/04 03:16:48;;;;;;;0.83;0.83;;;;;;;5.30;100.00;95178.66;10494590;28;20198;-81
2022/01/04 03:21:49;;;;;;;1.57;0.90;;;;;;;5.32;100.00;95184.50;10476609;28;20191;-81
2022/01/04 03:26:49;;;;;;;2.40;0.80;;;;;;;5.44;100.00;95179.00;10493979;28;20696;-81
2022/01/04 03:31:51;;;;;;;1.47;0.77;;;;;;;5.27;100.00;95176.38;10494170;28;20685;-81
2022/01/04 03:36:51;;;;;;;2.80;1.10;;;;;;;5.11;100.00;95166.78;10493955;28;20227;-81
2022/01/04 03:41:52;;;;;;;1.07;0.80;;;;;;;5.16;100.00;95151.56;10476225;28;20563;-81
2022/01/04 03:46:53;;;;;;;1.57;0.90;;;;;;;5.30;100.00;95124.13;10494207;28;20234;-82
2022/01/04 03:51:54;;;;;;;1.60;0.90;;;;;;;5.36;100.00;95102.72;10475356;28;20238;-82
2022/01/04 03:56:55;;;;;;;4.37;2.47;;;;;;;5.24;100.00;95096.22;10494105;28;20217;-81
2022/01/04 04:01:55;;;;;;;2.23;1.63;;;;;;;5.34;100.00;95096.88;10492767;28;20183;-81
2022/01/04 04:06:56;;;;;;;2.03;1.17;;;;;;;5.32;100.00;95088.44;10487218;28;20203;-80
2022/01/04 04:11:56;;;;;;;5.33;2.00;;;;;;;5.23;100.00;95075.63;10486497;28;20219;-81
2022/01/04 04:16:56;;;;;;;6.47;2.80;;;;;;;5.20;100.00;95076.75;10485545;28;20658;-81
2022/01/04 04:21:57;;;;;;;7.83;2.43;;;;;;;5.25;100.00;95065.88;10486804;28;20653;-81
2022/01/04 04:26:57;;;;;;;5.00;1.50;;;;;;;5.21;100.00;95062.81;10467780;28;20800;-81
2022/01/04 04:31:57;;;;;;;2.47;1.10;;;;;;;5.31;100.00;95058.25;10486024;28;20688;-81
2022/01/04 04:36:58;;;;;;;1.00;1.00;;;;;;;5.39;100.00;95052.25;10485026;28;20382;-81
2022/01/04 04:41:58;;;;;;;0.80;0.80;;;;;;;5.36;100.00;95032.59;10490857;28;20183;-81
2022/01/04 04:46:58;;;;;;;1.80;1.00;;;;;;;5.39;100.00;95021.09;10475015;28;20187;-81
2022/01/04 04:51:59;;;;;;;1.00;1.00;;;;;;;5.38;100.00;95005.66;10493010;28;20272;-79
2022/01/04 04:56:59;;;;;;;1.33;1.10;;;;;;;5.34;100.00;95007.78;10475265;28;20206;-81
2022/01/04 05:02:01;;;;;;;1.13;0.87;;;;;;;5.48;100.00;94998.47;10494602;28;20547;-81
2022/01/04 05:07:01;;;;;;;0.77;0.77;;;;;;;5.46;100.00;95005.63;10482113;28;20191;-81
2022/01/04 05:12:02;;;;;;;3.60;0.70;;;;;;;5.44;100.00;94992.81;10499746;28;20750;-81
2022/01/04 05:17:03;;;;;;;1.77;0.80;;;;;;;5.48;100.00;94978.53;10499164;28;20342;-81
2022/01/04 05:22:04;;;;;;;1.00;0.60;;;;;;;5.45;100.00;94958.09;10481308;28;20187;-81
2022/01/04 05:27:05;;;;;;;0.50;0.50;;;;;;;5.39;100.00;94956.16;10480895;28;20195;-81
2022/01/04 05:32:06;;;;;;;0.90;0.60;;;;;;;5.33;100.00;94957.63;10498343;28;20721;-81
2022/01/04 05:37:07;;;;;;;3.67;1.67;;;;;;;5.39;100.00;94953.56;10491657;28;20298;-82
2022/01/04 05:42:08;;;;;;;3.23;2.10;;;;;;;5.15;100.00;94946.66;10540632;28;20273;-82
2022/01/04 05:47:09;;;;;;;2.80;1.00;;;;;;;5.25;100.00;94936.06;10522085;28;20190;-81
2022/01/04 05:52:09;;;;;;;0.93;0.93;;;;;;;5.29;100.00;94916.59;10539255;28;20222;-81
2022/01/04 05:57:09;;;;;;;4.57;1.20;;;;;;;5.15;100.00;94912.91;10521453;28;20255;-81
2022/01/04 06:02:10;;;;;;;10.13;6.57;;;;;;;5.06;100.00;94900.94;10539786;28;20183;-81
2022/01/04 06:07:11;;;;;;;4.83;3.97;;;;;;;4.93;100.00;94902.28;10539147;28;20599;-80
2022/01/04 06:17:32;;;;;;;2.87;1.67;;;;;;;4.92;100.00;94877.31;10522886;28;20231;-80
2022/01/04 06:22:32;;;;;;;2.50;1.47;;;;;;;5.09;100.00;94857.28;10520944;28;20257;-80
2022/01/04 06:27:33;;;;;;;2.07;1.77;;;;;;;4.91;100.00;94851.53;10537758;28;20284;-79
2022/01/04 06:32:35;;;;;;;2.40;1.77;;;;;;;4.94;100.00;94848.59;10538293;28;20225;-80
2022/01/04 06:37:36;;;;;;;3.20;2.90;;;;;;;4.87;100.00;94850.22;10538249;28;20313;-79
2022/01/04 06:42:36;;;;;;;5.70;2.70;;;;;;;5.10;100.00;94829.53;10519814;28;20193;-79
2022/01/04 06:47:37;;;;;;;6.30;3.20;;;;;;;5.01;100.00;94823.59;10538062;28;20191;-79
2022/01/04 06:52:37;;;;;;;3.33;2.83;;;;;;;4.89;100.00;94805.00;10537666;28;20219;-79
2022/01/04 06:57:38;;;;;;;2.70;2.50;;;;;;;4.90;100.00;94785.84;10537125;28;20197;-79
2022/01/04 07:02:38;;;;;;;7.53;2.83;;;;;;;4.85;100.00;94780.34;10537299;28;20197;-79
2022/01/04 07:07:38;;;;;;;2.30;2.10;;;;;;;4.83;100.00;94769.34;10537075;28;20187;-79
2022/01/04 07:12:39;;;;;;;4.63;3.30;;;;;;;4.82;100.00;94750.38;10536457;28;20267;-79
2022/01/04 07:17:41;;;;;;;5.67;4.50;;;;;;;4.91;100.00;94752.94;10536963;28;20266;-79
2022/01/04 07:22:42;;;;;;;5.93;4.57;;;;;;;4.85;100.00;94745.81;10536348;28;20681;-79
2022/01/04 07:27:42;;;;;;;6.00;3.93;;;;;;;4.86;100.00;94744.84;10517758;28;20344;-79
2022/01/04 07:32:42;;;;;;;2.90;2.40;;;;;;;5.09;100.00;94742.28;10535663;28;20218;-79
2022/01/04 07:37:43;;;;;;;3.57;2.90;;;;;;;5.11;100.00;94740.31;10536860;28;20386;-79
2022/01/04 07:42:43;;;;;;;2.40;1.93;;;;;;;5.09;100.00;94722.34;10501068;28;20580;-79
2022/01/04 07:47:44;;;;;;;3.93;2.13;;;;;;;5.02;100.00;94711.00;10536424;28;20235;-79
2022/01/04 07:52:44;;;;;;;1.30;1.20;;;;;;;5.14;100.00;94712.22;10535637;28;20210;-78
2022/01/04 07:57:45;;;;;;;1.33;1.23;;;;;;;5.18;100.00;94708.31;10535729;28;20254;-78
2022/01/04 08:02:45;;;;;;;1.30;1.20;;;;;;;5.17;100.00;94690.31;10511106;28;20233;-78
2022/01/04 08:07:46;;;;;;;2.70;1.60;;;;;;;5.17;100.00;94695.50;10492585;28;20722;-79
2022/01/04 08:12:46;;;;;;;1.77;1.67;;;;;;;5.12;100.00;94677.88;10490174;28;20646;-79
2022/01/04 08:17:47;;;;;;;2.93;2.10;;;;;;;5.14;100.00;94680.28;10497592;28;20233;-79
2022/01/04 08:22:48;;;;;;;23.13;10.43;;;;;;;5.29;100.00;94668.16;10500221;28;20207;-79
2022/01/04 08:27:48;;;;;;;4.03;2.40;;;;;;;5.38;100.00;94668.91;10480671;28;20187;-79
2022/01/04 08:32:50;;;;;;;5.63;4.97;;;;;;;5.29;100.00;94650.00;10481578;28;20222;-78
2022/01/04 08:37:51;;;;;;;5.90;5.30;;;;;;;5.37;100.00;94643.94;10500805;28;20230;-79
2022/01/04 08:42:51;;;;;;;3.93;3.07;;;;;;;5.38;100.00;94629.19;10499688;28;20286;-79
2022/01/04 08:47:52;;;;;;;4.10;2.90;;;;;;;5.50;100.00;94627.78;10530427;28;20233;-79
2022/01/04 08:52:54;;;;;;;3.53;2.70;;;;;;;5.53;100.00;94623.00;10540250;28;20227;-78
2022/01/04 08:57:54;;;;;;;2.90;2.50;;;;;;;5.54;100.00;94606.47;10522214;28;20235;-79
2022/01/04 09:02:55;;;;;;;4.93;2.60;;;;;;;5.70;100.00;94602.88;10538523;28;20239;-78
2022/01/04 09:07:55;;;;;;;3.10;1.73;;;;;;;5.90;100.00;94610.94;10540174;28;20558;-79
2022/01/04 09:13:02;;;;;;;0.90;0.90;;;;;;;6.22;100.00;94590.00;10539071;28;20328;-78
2022/01/04 09:23:24;;;;;;;0.80;0.67;;;;;;;6.53;100.00;94562.91;10496369;28;20244;-79
2022/01/04 09:28:25;;;;;;;0.70;0.70;;;;;;;6.63;100.00;94563.44;10496788;28;20187;-79
2022/01/04 09:33:25;;;;;;;0.57;0.57;;;;;;;6.68;100.00;94545.47;10510922;28;20559;-79
2022/01/04 09:38:26;;;;;;;0.60;0.60;;;;;;;6.67;100.00;94537.84;10517989;28;20222;-80
2022/01/04 09:43:26;;;;;;;1.20;1.10;;;;;;;6.74;100.00;94525.69;10521367;28;20199;-79
2022/01/04 09:48:27;;;;;;;3.00;1.03;;;;;;;6.82;100.00;94520.34;10510021;28;20190;-79
2022/01/04 09:53:27;;;;;;;0.93;0.93;;;;;;;6.86;100.00;94508.59;10476057;28;20588;-79
2022/01/04 09:58:28;;;;;;;0.60;0.60;;;;;;;7.01;100.00;94498.06;10507055;28;20715;-80
2022/01/04 10:03:31;;;;;;;1.00;0.70;;;;;;;7.06;100.00;94485.31;10511862;28;20203;-80
2022/01/04 10:08:32;;;;;;;0.63;0.63;;;;;;;7.04;100.00;94468.25;10508425;28;20552;-80
2022/01/04 10:13:32;;;;;;;0.60;0.60;;;;;;;6.96;100.00;94470.00;10513652;28;20229;-81
2022/01/04 10:18:32;;;;;;;0.63;0.60;;;;;;;7.05;100.00;94455.06;10534515;28;20201;-79
2022/01/04 10:23:46;;;;;;;0.77;0.53;;;;;;;7.03;100.00;94451.03;10508734;28;20332;-80
2022/01/04 10:28:46;;;;;;;0.63;0.50;;;;;;;7.06;100.00;94442.84;10491947;28;20217;-79
2022/01/04 10:33:56;;;;;;;0.60;0.60;;;;;;;7.15;100.00;94444.28;10474239;28;20279;-81
2022/01/04 10:39:06;;;;;;;0.90;0.90;;;;;;;7.09;100.00;94432.03;10491474;28;20262;-79
2022/01/04 10:44:10;;;;;;;1.00;0.80;;;;;;;7.12;100.00;94422.06;10473752;28;20266;-79
2022/01/04 10:49:19;;;;;;;0.40;0.40;;;;;;;7.21;100.00;94414.09;10474201;28;20191;-79
2022/01/04 10:54:19;;;;;;;0.80;0.80;;;;;;;7.19;100.00;94405.66;10472245;28;20306;-79
2022/01/04 10:59:27;;;;;;;0.50;0.50;;;;;;;7.17;100.00;94395.44;10490648;28;20195;-79
2022/01/04 11:04:28;;;;;;;0.60;0.60;;;;;;;7.25;100.00;94394.47;10491300;28;20222;-79
2022/01/04 11:09:30;;;;;;;0.63;0.60;;;;;;;7.24;100.00;94382.44;10472949;28;20187;-79
2022/01/04 11:14:30;;;;;;;1.03;0.70;;;;;;;7.26;100.00;94373.47;10490246;28;20660;-79
2022/01/04 11:19:31;;;;;;;0.60;0.60;;;;;;;7.21;100.00;94370.63;10473502;28;20191;-79
2022/01/04 11:24:32;;;;;;;1.53;0.80;;;;;;;7.23;100.00;94363.44;10497780;28;20186;-79
2022/01/04 11:29:40;;;;;;;0.90;0.87;;;;;;;7.23;100.00;94352.19;10509447;28;20198;-79
2022/01/04 11:35:02;;;;;;;0.53;0.53;;;;;;;7.32;100.00;94340.63;10507670;28;20207;-79
2022/01/04 11:40:25;;;;;;;0.53;0.50;;;;;;;7.37;100.00;94327.03;10506950;28;20231;-80
2022/01/04 11:45:41;;;;;;;0.40;0.40;;;;;;;7.34;100.00;94317.00;10512816;28;20212;-80
2022/01/04 11:50:41;;;;;;;0.60;0.60;;;;;;;7.35;100.00;94319.41;10501423;28;20222;-80
2022/01/04 11:55:53;;;;;;;0.40;0.40;;;;;;;7.37;100.00;94300.97;10493040;28;20211;-80
2022/01/04 12:01:02;;;;;;;1.13;0.83;;;;;;;7.31;100.00;94292.16;10505359;28;20217;-80
2022/01/04 12:06:05;;;;;;;1.80;1.00;;;;;;;7.35;100.00;94293.38;10501093;28;20226;-80
2022/01/04 12:11:24;;;;;;;0.87;0.80;;;;;;;7.35;100.00;94288.16;10511318;28;20210;-80
2022/01/04 12:16:45;;;;;;;0.63;0.63;;;;;;;7.38;100.00;94284.34;10505042;28;20282;-81
2022/01/04 12:22:02;;;;;;;0.83;0.60;;;;;;;7.34;100.00;94272.72;10502041;28;20272;-81
2022/01/04 12:27:07;;;;;;;0.60;0.60;;;;;;;7.45;100.00;94270.31;10515711;28;20561;-81
2022/01/04 12:32:19;;;;;;;0.60;0.60;;;;;;;7.47;100.00;94277.94;10504704;28;20218;-81
2022/01/04 12:37:20;;;;;;;0.60;0.60;;;;;;;7.25;100.00;94275.50;10506347;28;20250;-81
2022/01/04 12:42:20;;;;;;;0.70;0.70;;;;;;;7.23;100.00;94267.09;10507539;28;20273;-81
2022/01/04 12:47:21;;;;;;;1.40;1.30;;;;;;;7.08;100.00;94272.44;10509192;28;20193;-80
2022/01/04 12:52:21;;;;;;;1.80;1.70;;;;;;;6.99;100.00;94263.19;10507685;28;20703;-80
2022/01/04 12:57:24;;;;;;;0.93;0.93;;;;;;;6.88;100.00;94250.75;10490816;28;20278;-80
2022/01/04 13:02:27;;;;;;;1.50;1.40;;;;;;;6.70;100.00;94265.06;10509647;28;20183;-79
2022/01/04 13:07:31;;;;;;;2.93;2.63;;;;;;;6.46;100.00;94281.94;10501415;28;20251;-79
2022/01/04 13:12:35;;;;;;;1.97;1.83;;;;;;;5.86;100.00;94287.50;10514156;28;20218;-79
2022/01/04 13:17:37;;;;;;;1.37;1.27;;;;;;;5.49;100.00;94297.16;10505595;28;20197;-79
2022/01/04 13:22:38;;;;;;;1.33;1.23;;;;;;;5.39;100.00;94293.25;10479295;28;20198;-79
2022/01/04 13:27:43;;;;;;;2.07;1.87;;;;;;;5.32;100.00;94293.97;10523855;28;20606;-79
2022/01/04 13:32:46;;;;;;;1.57;1.47;;;;;;;5.21;100.00;94283.28;10502606;28;20239;-79
2022/01/04 13:37:51;;;;;;;1.93;1.80;;;;;;;5.20;100.00;94292.84;10512092;28;20231;-79
2022/01/04 13:43:09;;;;;;;3.10;2.80;;;;;;;5.26;100.00;94291.34;10510352;28;20214;-79
2022/01/04 13:48:11;;;;;;;2.50;2.30;;;;;;;5.26;100.00;94279.16;10513589;28;20194;-80
2022/01/04 13:53:22;;;;;;;0.93;0.93;;;;;;;5.39;100.00;94308.81;10492479;28;20647;-79
2022/01/04 13:58:50;;;;;;;0.70;0.70;;;;;;;5.34;100.00;94318.00;10511217;28;20302;-79
2022/01/04 14:03:53;;;;;;;0.50;0.50;;;;;;;5.18;100.00;94318.19;10512188;28;20255;-79
2022/01/04 14:08:54;;;;;;;0.70;0.70;;;;;;;5.17;100.00;94339.94;10512369;28;20199;-79
2022/01/04 14:13:55;;;;;;;0.73;0.73;;;;;;;5.15;100.00;94337.53;10509745;28;20211;-79
2022/01/04 14:19:15;;;;;;;0.80;0.80;;;;;;;5.17;100.00;94350.31;10509032;28;20191;-79
2022/01/04 14:24:35;;;;;;;1.00;1.00;;;;;;;5.20;100.00;94352.56;10521897;28;20650;-79
2022/01/04 14:29:47;;;;;;;1.43;1.33;;;;;;;5.18;100.00;94355.34;10533478;28;20561;-79
2022/01/04 14:34:48;;;;;;;1.40;1.23;;;;;;;5.13;100.00;94373.25;10535712;28;20227;-79
2022/01/04 14:39:50;;;;;;;1.33;0.90;;;;;;;4.82;100.00;94373.44;10534837;28;20254;-80
2022/01/04 14:44:50;;;;;;;1.03;0.93;;;;;;;4.85;100.00;94380.84;10515749;28;20210;-79
2022/01/04 14:49:51;;;;;;;1.60;0.90;;;;;;;4.67;100.00;94380.41;10499212;28;20219;-77
2022/01/04 14:54:52;;;;;;;1.00;1.00;;;;;;;4.60;100.00;94388.88;10493402;28;20215;-77
2022/01/04 14:59:54;;;;;;;1.67;1.10;;;;;;;4.57;100.00;94391.03;10492766;28;20218;-78
2022/01/04 15:04:56;;;;;;;1.30;1.20;;;;;;;4.67;100.00;94401.97;10490269;28;20187;-78
2022/01/04 15:09:58;;;;;;;2.00;1.80;;;;;;;4.46;100.00;94413.00;10497041;28;20636;-79
2022/01/04 15:14:59;;;;;;;2.97;2.77;;;;;;;4.50;100.00;94419.44;10516244;28;20222;-79
2022/01/04 15:20:00;;;;;;;4.57;3.43;;;;;;;4.47;100.00;94427.56;10516028;28;20600;-79
2022/01/04 15:25:00;;;;;;;4.30;2.93;;;;;;;4.50;100.00;94447.16;10532810;28;20260;-79
2022/01/04 15:30:02;;;;;;;4.50;4.10;;;;;;;4.27;100.00;94463.53;10532598;28;20182;-78
2022/01/04 15:35:04;;;;;;;3.37;2.83;;;;;;;4.10;100.00;94468.84;10533121;28;20214;-79
2022/01/04 15:40:04;;;;;;;1.50;1.40;;;;;;;3.96;100.00;94464.38;10533287;28;20764;-79
2022/01/04 15:45:05;;;;;;;1.27;1.23;;;;;;;3.61;100.00;94466.50;10533144;28;20190;-79
2022/01/04 15:50:07;;;;;;;1.40;1.30;;;;;;;3.46;100.00;94473.38;10533571;28;20190;-82
2022/01/04 15:55:07;;;;;;;1.40;1.30;;;;;;;3.46;100.00;94471.59;10532851;28;20211;-82
2022/01/04 16:00:08;;;;;;;1.70;1.60;;;;;;;3.51;100.00;94474.50;10534232;28;20186;-81
2022/01/04 16:05:11;;;;;;;2.37;1.97;;;;;;;3.43;100.00;94474.53;10518595;28;20175;-80
2022/01/04 16:10:11;;;;;;;2.53;2.30;;;;;;;3.38;100.00;94490.56;10508719;28;20217;-81
2022/01/04 16:15:16;;;;;;;1.50;1.40;;;;;;;3.39;100.00;94488.78;10529977;28;20267;-80
2022/01/04 16:25:36;;;;;;;1.70;1.57;;;;;;;3.37;100.00;94493.31;10532873;28;20316;-80
2022/01/04 16:30:36;;;;;;;3.00;2.70;;;;;;;3.47;100.00;94503.47;10492821;28;20620;-81
2022/01/04 16:35:37;;;;;;;25.77;15.43;;;;;;;3.43;100.00;94509.94;10510226;28;20217;-80
2022/01/04 16:40:37;;;;;;;2.10;2.00;;;;;;;3.36;100.00;94520.97;10497574;28;20219;-80
2022/01/04 16:45:37;;;;;;;2.93;2.73;;;;;;;3.25;100.00;94517.91;10499634;28;20210;-80
2022/01/04 16:50:38;;;;;;;1.90;1.70;;;;;;;3.21;100.00;94518.25;10523918;28;20251;-80
2022/01/04 16:55:38;;;;;;;2.00;1.80;;;;;;;3.29;100.00;94534.72;10506582;28;20641;-80
2022/01/04 17:00:39;;;;;;;2.33;2.13;;;;;;;3.34;100.00;94546.22;10506848;28;20617;-80
2022/01/04 17:05:41;;;;;;;2.53;2.10;;;;;;;3.35;100.00;94550.41;10520480;28;20187;-79
2022/01/04 17:10:54;;;;;;;2.60;2.23;;;;;;;3.38;100.00;94567.38;10539314;28;20198;-80
2022/01/04 17:15:54;;;;;;;3.23;2.93;;;;;;;3.35;100.00;94568.53;10539479;28;20230;-80
2022/01/04 17:20:55;;;;;;;2.90;2.70;;;;;;;3.37;100.00;94576.13;10538859;28;20195;-80
2022/01/04 17:25:55;;;;;;;2.37;2.10;;;;;;;3.30;100.00;94557.06;10538981;28;20194;-80
2022/01/04 17:30:56;;;;;;;5.20;4.30;;;;;;;3.28;100.00;94554.63;10539041;28;20243;-80
2022/01/04 17:35:56;;;;;;;4.37;3.97;;;;;;;3.19;100.00;94553.03;10520311;28;20630;-80
2022/01/04 17:40:57;;;;;;;4.17;3.30;;;;;;;3.09;100.00;94548.00;10503751;28;20619;-79
2022/01/04 17:45:58;;;;;;;3.73;2.87;;;;;;;3.00;100.00;94549.81;10539771;28;20592;-80
2022/01/04 17:50:58;;;;;;;4.27;3.40;;;;;;;3.01;100.00;94548.84;10519134;28;20193;-80
2022/01/04 17:55:59;;;;;;;3.83;2.80;;;;;;;3.01;100.00;94584.25;10520395;28;20221;-80
2022/01/04 18:01:02;;;;;;;4.37;3.07;;;;;;;2.98;100.00;94595.72;10526583;28;20534;-80
2022/01/04 18:06:03;;;;;;;2.60;2.40;;;;;;;3.06;100.00;94596.69;10514804;28;20198;-80
2022/01/04 18:11:04;;;;;;;3.20;2.50;;;;;;;3.11;100.00;94603.00;10518302;28;20213;-80
2022/01/04 18:16:04;;;;;;;2.40;2.20;;;;;;;3.17;100.00;94622.22;10494663;28;20700;-81
2022/01/04 18:21:05;;;;;;;2.43;1.70;;;;;;;3.18;100.00;94627.22;10513650;28;20194;-80
2022/01/04 18:26:05;;;;;;;2.10;1.90;;;;;;;3.02;100.00;94635.81;10493054;28;20190;-80
2022/01/04 18:31:06;;;;;;;4.37;2.40;;;;;;;2.95;100.00;94645.19;10509912;28;20205;-79
2022/01/04 18:36:06;;;;;;;3.43;3.13;;;;;;;2.98;100.00;94646.66;10507397;28;20215;-79
2022/01/04 18:41:09;;;;;;;3.23;2.93;;;;;;;2.92;100.00;94658.44;10470646;28;20203;-79
2022/01/04 18:46:09;;;;;;;3.57;2.97;;;;;;;2.89;100.00;94660.53;10471017;28;20608;-80
2022/01/04 18:51:09;;;;;;;2.77;2.57;;;;;;;2.89;100.00;94658.75;10492619;28;20248;-79
2022/01/04 18:56:10;;;;;;;3.57;2.43;;;;;;;2.78;100.00;94670.22;10472819;28;20215;-79
2022/01/04 19:01:10;;;;;;;4.43;3.83;;;;;;;2.76;100.00;94679.91;10474793;28;20276;-80
2022/01/04 19:06:11;;;;;;;3.33;2.83;;;;;;;2.84;100.00;94674.75;10493243;28;20194;-80
2022/01/04 19:11:11;;;;;;;5.20;4.47;;;;;;;2.81;100.00;94651.00;10476030;28;20195;-76
2022/01/04 19:16:11;;;;;;;6.10;4.90;;;;;;;2.71;100.00;94639.97;10493578;28;20685;-81
2022/01/04 19:21:12;;;;;;;8.17;5.83;;;;;;;2.55;100.00;94644.16;10475484;28;20195;-79
2022/01/04 19:26:12;;;;;;;6.60;4.73;;;;;;;2.63;100.00;94638.19;10493501;28;20213;-80
2022/01/04 19:31:21;;;;;;;6.87;5.03;;;;;;;2.60;100.00;94634.13;10474858;28;20223;-80
2022/01/04 19:36:24;;;;;;;5.90;5.30;;;;;;;2.53;100.00;94658.19;10480457;28;20321;-80
2022/01/04 19:41:31;;;;;;;4.77;4.20;;;;;;;2.54;100.00;94647.69;10516419;28;20194;-81
2022/01/04 19:46:31;;;;;;;4.50;3.60;;;;;;;2.49;100.00;94653.34;10534181;28;20183;-81
2022/01/04 19:51:32;;;;;;;3.87;3.37;;;;;;;2.37;100.00;94652.00;10515185;28;20224;-81
2022/01/04 19:56:33;;;;;;;7.73;3.17;;;;;;;2.42;100.00;94652.38;10533752;28;20688;-81
2022/01/04 20:01:34;;;;;;;3.93;3.10;;;;;;;2.53;100.00;94665.94;10533943;28;20729;-80
2022/01/04 20:06:34;;;;;;;4.20;2.53;;;;;;;2.58;100.00;94667.09;10534070;28;20312;-80
2022/01/04 20:11:35;;;;;;;3.10;2.70;;;;;;;2.38;100.00;94686.44;10536557;28;20194;-80
2022/01/04 20:16:35;;;;;;;4.77;3.20;;;;;;;2.54;100.00;94691.63;10523923;28;20211;-81
2022/01/04 20:21:36;;;;;;;2.50;2.10;;;;;;;2.57;100.00;94696.50;10524295;28;20652;-81
2022/01/04 20:26:38;;;;;;;3.10;2.40;;;;;;;2.60;100.00;94716.84;10518281;28;20202;-81
2022/01/04 20:31:38;;;;;;;2.97;2.70;;;;;;;2.68;100.00;94710.94;10518069;28;20245;-82
2022/01/04 20:36:40;;;;;;;3.50;2.40;;;;;;;2.65;100.00;94712.03;10498928;28;20268;-82
2022/01/04 20:41:41;;;;;;;5.27;2.30;;;;;;;2.88;100.00;94703.69;10500954;28;20190;-82
2022/01/04 20:46:50;;;;;;;2.60;2.40;;;;;;;2.91;100.00;94697.38;10498980;28;20242;-84
2022/01/04 20:51:50;;;;;;;3.40;1.90;;;;;;;3.03;100.00;94688.34;10516858;28;20262;-83
2022/01/04 20:56:50;;;;;;;6.57;4.83;;;;;;;3.08;100.00;94698.22;10521924;28;20226;-82
2022/01/04 21:01:52;;;;;;;5.73;3.43;;;;;;;3.14;100.00;94705.34;10540291;28;20642;-83
2022/01/04 21:06:52;;;;;;;5.10;2.87;;;;;;;3.29;100.00;94700.34;10540579;28;20252;-82
2022/01/04 21:12:00;;;;;;;8.47;3.70;;;;;;;3.25;100.00;94710.22;10539535;28;20225;-82
2022/01/04 21:17:00;;;;;;;2.67;2.03;;;;;;;3.20;100.00;94697.75;10522202;28;20633;-81
2022/01/04 21:22:03;;;;;;;4.97;2.10;;;;;;;3.29;100.00;94708.94;10521967;28;20193;-81
2022/01/04 21:27:06;;;;;;;5.53;2.33;;;;;;;3.34;100.00;94698.09;10539191;28;20202;-82
2022/01/04 21:32:07;;;;;;;4.47;2.23;;;;;;;3.43;100.00;94707.47;10539281;28;20268;-81
2022/01/04 21:37:07;;;;;;;3.00;2.10;;;;;;;3.38;100.00;94714.91;10521065;28;20241;-80
2022/01/04 21:42:08;;;;;;;2.90;2.30;;;;;;;3.36;100.00;94706.50;10538025;28;20201;-80
2022/01/04 21:47:08;;;;;;;1.73;1.63;;;;;;;3.44;100.00;94714.25;10504388;28;20194;-81
2022/01/04 21:52:09;;;;;;;3.37;2.23;;;;;;;3.40;100.00;94712.97;10538317;28;20211;-81
2022/01/04 21:57:09;;;;;;;3.10;2.20;;;;;;;3.46;100.00;94707.16;10538564;28;20190;-80
2022/01/04 22:02:10;;;;;;;2.73;2.10;;;;;;;3.41;100.00;94714.56;10538096;28;20225;-81
2022/01/04 22:07:10;;;;;;;5.80;2.60;;;;;;;3.53;100.00;94725.41;10537848;28;20183;-80
2022/01/04 22:12:10;;;;;;;3.00;2.30;;;;;;;3.56;100.00;94728.47;10537511;28;20279;-80
2022/01/04 22:17:11;;;;;;;2.07;1.83;;;;;;;3.62;100.00;94731.41;10537269;28;20527;-79
2022/01/04 22:22:11;;;;;;;3.00;2.10;;;;;;;3.59;100.00;94744.69;10539083;28;20202;-80
2022/01/04 22:27:12;;;;;;;3.70;2.97;;;;;;;3.52;100.00;94739.31;10538486;28;20277;-80
2022/01/04 22:32:12;;;;;;;4.43;2.37;;;;;;;3.61;100.00;94733.16;10538682;28;20622;-80
2022/01/04 22:37:13;;;;;;;5.20;2.80;;;;;;;3.57;100.00;94737.88;10537901;28;20230;-80
2022/01/04 22:42:13;;;;;;;3.83;2.70;;;;;;;3.54;100.00;94747.75;10537301;28;20194;-79
2022/01/04 22:47:14;;;;;;;6.07;2.30;;;;;;;3.59;100.00;94749.84;10538498;28;20190;-80
2022/01/04 22:52:14;;;;;;;3.70;2.43;;;;;;;3.60;100.00;94751.47;10502897;28;20645;-80
2022/01/04 22:57:15;;;;;;;4.07;2.67;;;;;;;3.54;100.00;94740.00;10537746;28;20191;-80
2022/01/04 23:02:15;;;;;;;3.57;2.30;;;;;;;3.66;100.00;94740.44;10537305;28;20656;-79
2022/01/04 23:07:17;;;;;;;4.77;2.60;;;;;;;3.67;100.00;94731.72;10537095;28;20306;-80
2022/01/04 23:12:18;;;;;;;4.20;3.13;;;;;;;3.60;100.00;94733.34;10536675;28;20225;-80
2022/01/04 23:17:18;;;;;;;4.43;2.67;;;;;;;3.78;100.00;94736.56;10536456;28;20193;-80
2022/01/04 23:22:19;;;;;;;5.13;2.80;;;;;;;3.81;100.00;94743.19;10518540;28;20197;-79
2022/01/04 23:27:19;;;;;;;2.37;1.80;;;;;;;3.81;100.00;94733.63;10536166;28;20232;-80
2022/01/04 23:32:20;;;;;;;3.23;2.43;;;;;;;3.71;100.00;94733.81;10536413;28;20218;-80
2022/01/04 23:37:20;;;;;;;2.73;2.43;;;;;;;3.72;100.00;94730.28;10535636;28;20234;-80
2022/01/04 23:42:21;;;;;;;3.67;2.57;;;;;;;3.58;100.00;94733.50;10535921;28;20205;-80